Time;durP1;ratioP1;P1;durP2;ratioP2;P2;SDS_P1;SDS_P2;PMS_P1;PMS_P2;Temp;Humidity;BMP_temperature;BMP_pressure;BME280_temperature;BME280_humidity;BME280_pressure;Samples;Min_cycle;Max_cycle;Signal;HPM_P1;HPM_P2
2022/04/23 00:00:04;;;;;;;14.63;12.10;;;10.10;99.90;;;-141.84;81.79;16949.28;5030094;28;20674;-61
2022/04/23 00:02:32;;;;;;;13.17;11.50;;;10.10;99.90;;;-141.84;81.93;16945.22;5029828;28;20229;-61
2022/04/23 00:05:01;;;;;;;15.30;11.97;;;10.00;99.90;;;-141.84;80.93;16957.41;5029740;28;20229;-61
2022/04/23 00:07:29;;;;;;;16.53;12.23;;;10.00;99.90;;;-141.84;80.92;16961.44;5029770;28;20265;-61
2022/04/23 00:09:57;;;;;;;14.27;11.47;;;10.00;99.90;;;-141.84;82.46;16916.78;5029648;28;20706;-62
2022/04/23 00:12:25;;;;;;;13.93;11.80;;;9.90;99.90;;;-141.84;81.82;16931.00;5029827;28;20304;-61
2022/04/23 00:14:54;;;;;;;14.13;11.77;;;9.90;99.90;;;-141.84;82.10;16928.97;5027786;28;20727;-60
2022/04/23 00:17:22;;;;;;;15.33;12.03;;;9.80;99.90;;;-141.84;82.20;16920.84;5009905;28;20317;-62
2022/04/23 00:19:50;;;;;;;14.40;11.53;;;9.80;99.90;;;-141.84;83.04;16983.78;5009989;28;20236;-60
2022/04/23 00:22:20;;;;;;;15.20;12.23;;;9.70;99.90;;;-141.84;82.53;16931.00;5009993;28;20240;-61
2022/04/23 00:24:48;;;;;;;13.67;11.40;;;9.70;99.90;;;-141.84;83.61;16896.47;5009620;28;20226;-61
2022/04/23 00:27:16;;;;;;;14.40;11.93;;;9.60;99.90;;;-141.84;83.63;16888.34;5010211;28;20297;-60
2022/04/23 00:29:44;;;;;;;15.70;12.50;;;9.50;99.90;;;-141.84;83.67;16912.72;5009493;28;20250;-61
2022/04/23 00:32:11;;;;;;;14.50;11.27;;;9.40;99.90;;;-141.84;84.35;16866.00;5009766;28;20317;-61
2022/04/23 00:34:40;;;;;;;17.00;12.40;;;9.40;99.90;;;-141.84;83.77;16898.50;5009636;28;20229;-61
2022/04/23 00:37:08;;;;;;;13.33;11.50;;;9.30;99.90;;;-141.84;83.86;16894.44;5009975;28;20230;-60
2022/04/23 00:39:37;;;;;;;14.33;11.37;;;9.30;99.90;;;-141.84;83.88;16924.91;5009714;28;20206;-59
2022/04/23 00:42:08;;;;;;;14.93;11.50;;;9.30;99.90;;;-141.84;84.71;16910.69;5026548;28;20216;-59
2022/04/23 00:44:38;;;;;;;13.83;11.17;;;9.20;99.90;;;-141.84;84.42;16878.19;5029072;28;20638;-61
2022/04/23 00:47:08;;;;;;;14.50;11.93;;;9.20;99.90;;;-141.84;85.36;16872.09;5029922;28;20740;-60
2022/04/23 00:49:37;;;;;;;13.43;11.10;;;9.10;99.90;;;-141.84;86.24;16888.34;5029263;28;20280;-62
2022/04/23 00:52:06;;;;;;;15.30;11.50;;;9.00;99.90;;;-141.84;85.49;16878.19;5029245;28;20252;-60
2022/04/23 00:54:35;;;;;;;16.43;11.77;;;8.90;99.90;;;-141.84;86.78;16843.66;5031466;28;20216;-60
2022/04/23 00:57:07;;;;;;;14.53;11.33;;;8.90;99.90;;;-141.84;87.19;16835.53;5033938;28;20229;-61
2022/04/23 00:59:35;;;;;;;15.17;11.77;;;8.80;99.90;;;-141.84;86.70;16855.84;5032864;28;20230;-61
2022/04/23 01:02:04;;;;;;;13.60;10.87;;;8.80;99.90;;;-141.84;86.63;16837.56;5033319;28;20233;-61
2022/04/23 01:04:32;;;;;;;12.93;10.97;;;8.70;99.90;;;-141.84;86.45;16815.22;5033171;28;20226;-61
2022/04/23 01:07:03;;;;;;;13.27;10.57;;;8.70;99.90;;;-141.84;86.21;16829.44;5033355;28;20348;-61
2022/04/23 01:09:31;;;;;;;12.20;10.30;;;8.60;99.90;;;-141.84;86.64;16853.81;5033049;28;20206;-61
2022/04/23 01:11:59;;;;;;;13.70;9.87;;;8.60;99.90;;;-141.84;85.34;16849.75;5033730;28;20289;-61
2022/04/23 01:14:29;;;;;;;12.00;9.90;;;8.60;99.90;;;-141.84;85.91;16853.81;5032750;28;20255;-61
2022/04/23 01:16:57;;;;;;;13.33;10.30;;;8.60;99.90;;;-141.84;86.29;16847.72;5013793;28;20226;-60
2022/04/23 01:19:25;;;;;;;12.63;9.90;;;8.50;99.90;;;-141.84;86.63;16847.72;5013061;28;20227;-61
2022/04/23 01:21:55;;;;;;;12.00;10.03;;;8.40;99.90;;;-141.84;86.83;16835.53;5013502;28;20314;-60
2022/04/23 01:24:25;;;;;;;12.40;10.40;;;8.40;99.90;;;-141.84;86.98;16823.34;5013556;28;20281;-60
2022/04/23 01:26:54;;;;;;;11.10;9.57;;;8.40;99.90;;;-141.84;86.01;16849.75;5013656;28;20227;-60
2022/04/23 01:29:22;;;;;;;12.60;10.00;;;8.40;99.90;;;-141.84;86.11;16892.41;5013007;28;20321;-61
2022/04/23 01:31:50;;;;;;;11.60;9.97;;;8.30;99.90;;;-141.84;86.57;16868.03;5012603;28;20730;-62
2022/04/23 01:34:18;;;;;;;11.07;9.00;;;8.30;99.90;;;-141.84;87.17;16845.69;5013134;28;20306;-60
2022/04/23 01:36:46;;;;;;;11.33;9.63;;;8.20;99.90;;;-141.84;86.48;16831.47;5012965;28;20227;-61
2022/04/23 01:39:15;;;;;;;11.43;9.40;;;8.20;99.90;;;-141.84;86.25;16823.34;5013396;28;20227;-61
2022/04/23 01:41:46;;;;;;;12.70;10.30;;;8.10;99.90;;;-141.84;85.36;16863.97;5025997;28;20232;-62
2022/04/23 01:44:15;;;;;;;11.00;9.83;;;8.20;99.90;;;-141.84;85.31;16851.78;5032727;28;20252;-59
2022/04/23 01:46:43;;;;;;;11.70;9.67;;;8.20;99.90;;;-141.84;85.89;16892.41;5032032;28;20253;-60
2022/04/23 01:49:11;;;;;;;12.13;9.80;;;8.10;99.90;;;-141.84;85.14;16890.38;5032438;28;20297;-59
2022/04/23 01:51:39;;;;;;;11.40;9.80;;;8.10;99.90;;;-141.84;84.65;16874.13;5032295;28;20206;-60
2022/04/23 01:54:07;;;;;;;11.10;9.23;;;8.10;99.90;;;-141.84;84.24;16886.31;5032576;28;20198;-61
2022/04/23 01:56:36;;;;;;;12.03;9.50;;;8.10;99.90;;;-141.84;84.54;16866.00;5032160;28;20314;-60
2022/04/23 01:59:04;;;;;;;11.83;10.00;;;8.10;99.90;;;-141.84;84.35;16866.00;5032060;28;20772;-62
2022/04/23 02:01:32;;;;;;;11.10;9.90;;;8.10;99.90;;;-141.84;84.46;16863.97;5031817;28;20724;-62
2022/04/23 02:04:01;;;;;;;11.37;9.80;;;8.00;99.90;;;-141.84;84.55;16880.22;5032332;28;20364;-61
2022/04/23 02:06:29;;;;;;;11.87;9.57;;;8.00;99.90;;;-141.84;85.75;16863.97;5030643;28;20222;-61
2022/04/23 02:08:57;;;;;;;11.80;10.13;;;7.90;99.90;;;-141.84;85.75;16884.28;5032460;28;20237;-61
2022/04/23 02:11:25;;;;;;;10.77;9.57;;;7.90;99.90;;;-141.84;84.65;16880.22;5031731;28;20689;-61
2022/04/23 02:13:54;;;;;;;13.37;10.27;;;7.90;99.90;;;-141.84;84.72;16859.91;5031971;28;20229;-61
2022/04/23 02:16:22;;;;;;;11.17;9.73;;;7.90;99.90;;;-141.84;85.29;16880.22;5017390;28;20222;-59
2022/04/23 02:18:51;;;;;;;11.77;10.57;;;7.80;99.90;;;-141.84;85.40;16845.69;5011939;28;20313;-60
2022/04/23 02:21:19;;;;;;;10.63;9.53;;;7.80;99.90;;;-141.84;86.07;16853.81;5012480;28;20255;-60
2022/04/23 02:23:47;;;;;;;10.67;9.23;;;7.70;99.90;;;-141.84;85.82;16845.69;5011683;28;20318;-60
2022/04/23 02:26:15;;;;;;;11.27;10.03;;;7.70;99.90;;;-141.84;85.36;16884.28;5011728;28;20234;-61
2022/04/23 02:28:43;;;;;;;12.10;10.20;;;7.70;99.90;;;-141.84;85.98;16821.31;5012167;28;20265;-61
2022/04/23 02:31:12;;;;;;;11.37;10.17;;;7.60;99.90;;;-141.84;86.18;16876.16;5011769;28;20309;-61
2022/04/23 02:33:40;;;;;;;11.50;10.03;;;7.60;99.90;;;-141.84;86.52;16870.06;5011870;28;20523;-62
2022/04/23 02:36:09;;;;;;;11.00;9.90;;;7.50;99.90;;;-141.84;86.66;16843.66;5012298;28;20294;-60
2022/04/23 02:38:39;;;;;;;13.47;10.60;;;7.50;99.90;;;-141.84;86.14;16839.59;5011576;28;20338;-60
2022/04/23 02:41:07;;;;;;;10.73;9.70;;;7.50;99.90;;;-141.84;86.64;16872.09;5019866;28;20234;-60
2022/04/23 02:43:35;;;;;;;11.60;10.03;;;7.50;99.90;;;-141.84;86.27;16851.78;5031492;28;20230;-60
2022/04/23 02:46:03;;;;;;;12.20;10.23;;;7.50;99.90;;;-141.84;86.74;16857.88;5031131;28;20225;-60
2022/04/23 02:48:33;;;;;;;11.30;10.10;;;7.50;99.90;;;-141.84;86.49;16863.97;5031328;28;20205;-62
2022/04/23 02:51:01;;;;;;;11.60;10.23;;;7.40;99.90;;;-141.84;87.80;16859.91;5031813;28;20208;-60
2022/04/23 02:53:29;;;;;;;11.57;10.33;;;7.30;99.90;;;-141.84;87.10;16861.94;5031453;28;20304;-60
2022/04/23 02:55:58;;;;;;;12.20;10.47;;;7.40;99.90;;;-141.84;86.91;16805.09;5031457;28;20705;-60
2022/04/23 02:58:26;;;;;;;10.90;9.57;;;7.30;99.90;;;-141.84;87.71;16835.53;5031101;28;20793;-60
2022/04/23 03:00:54;;;;;;;11.57;10.47;;;7.30;99.90;;;-141.84;88.38;16813.19;5031179;28;20308;-59
2022/04/23 03:03:23;;;;;;;11.90;10.60;;;7.20;99.90;;;-141.84;88.54;16813.19;5031563;28;20379;-60
2022/04/23 03:05:53;;;;;;;11.60;10.47;;;7.10;99.90;;;-141.84;88.06;16809.13;5011363;28;20229;-60
2022/04/23 03:08:23;;;;;;;11.53;10.33;;;7.20;99.90;;;-141.84;88.40;16803.06;5011001;28;20240;-60
2022/04/23 03:10:52;;;;;;;11.67;10.47;;;7.10;99.90;;;-141.84;87.92;16876.16;5017572;28;20255;-60
2022/04/23 03:13:20;;;;;;;11.20;10.00;;;7.10;99.90;;;-141.84;87.73;16821.31;5030786;28;20668;-59
2022/04/23 03:15:48;;;;;;;11.37;10.10;;;7.10;99.90;;;-141.84;86.94;16847.72;5021126;28;20317;-60
2022/04/23 03:18:17;;;;;;;12.53;10.37;;;7.20;99.90;;;-141.84;87.61;16815.22;5010943;28;20552;-60
2022/04/23 03:20:46;;;;;;;11.97;10.63;;;7.20;99.90;;;-141.84;87.87;16841.63;5011143;28;20313;-60
2022/04/23 03:23:15;;;;;;;11.67;10.47;;;7.20;99.90;;;-141.84;88.88;16825.38;5010928;28;20317;-61
2022/04/23 03:25:43;;;;;;;11.77;10.57;;;7.10;99.90;;;-141.84;89.15;16819.28;5010992;28;20255;-60
2022/04/23 03:28:13;;;;;;;12.90;11.30;;;7.00;99.90;;;-141.84;89.71;16819.28;5010824;28;20253;-60
2022/04/23 03:30:42;;;;;;;12.60;11.30;;;6.90;99.90;;;-141.84;88.93;16801.03;5011046;28;20249;-61
2022/04/23 03:33:10;;;;;;;11.73;10.53;;;7.00;99.90;;;-141.84;88.47;16796.97;5010900;28;20202;-60
2022/04/23 03:35:38;;;;;;;11.50;10.13;;;7.00;99.90;;;-141.84;89.68;16774.63;5010489;28;20257;-60
2022/04/23 03:38:06;;;;;;;12.67;10.80;;;6.90;99.90;;;-141.84;90.29;16782.75;5017947;28;20241;-61
2022/04/23 03:40:36;;;;;;;12.40;11.10;;;6.90;99.90;;;-141.84;89.16;16823.34;5026158;28;20254;-60
2022/04/23 03:43:05;;;;;;;11.90;10.60;;;6.90;99.90;;;-141.84;89.27;16799.00;5027937;28;20601;-61
2022/04/23 03:45:33;;;;;;;13.77;11.90;;;6.90;99.90;;;-141.84;89.22;16758.38;5030085;28;20201;-61
2022/04/23 03:48:02;;;;;;;13.00;11.13;;;6.90;99.90;;;-141.84;88.57;16803.06;5030492;28;20221;-61
2022/04/23 03:50:30;;;;;;;13.87;11.77;;;7.00;99.90;;;-141.84;88.86;16786.81;5030252;28;20264;-61
2022/04/23 03:52:58;;;;;;;13.73;11.80;;;6.90;99.90;;;-141.84;89.22;16772.59;5029768;28;20596;-61
2022/04/23 03:55:26;;;;;;;13.37;11.63;;;6.90;99.90;;;-141.84;89.28;16786.81;5030167;28;20307;-60
2022/04/23 03:57:56;;;;;;;12.87;11.30;;;6.90;99.90;;;-141.84;89.57;16805.09;5029916;28;20820;-61
2022/04/23 04:00:24;;;;;;;12.80;11.40;;;6.90;99.90;;;-141.84;91.15;16788.84;5030107;28;20209;-59
2022/04/23 04:02:55;;;;;;;14.67;11.97;;;6.80;99.90;;;-141.84;91.03;16742.13;5030375;28;20204;-62
2022/04/23 04:05:25;;;;;;;13.13;11.73;;;6.70;99.90;;;-141.84;90.61;16778.69;5030868;28;20717;-61
2022/04/23 04:07:53;;;;;;;12.23;10.93;;;6.70;99.90;;;-141.84;91.28;16762.44;5030758;28;20240;-60
2022/04/23 04:10:24;;;;;;;14.17;12.50;;;6.70;99.90;;;-141.84;91.27;16760.41;5030872;28;20228;-59
2022/04/23 04:12:52;;;;;;;13.10;11.80;;;6.70;99.90;;;-141.84;90.03;16770.56;5030818;28;20240;-61
2022/04/23 04:15:22;;;;;;;13.57;12.07;;;6.70;99.90;;;-141.84;89.41;16778.69;5025458;28;20198;-60
2022/04/23 04:17:52;;;;;;;13.77;12.33;;;6.80;99.90;;;-141.84;89.54;16764.47;5011307;28;20224;-60
2022/04/23 04:20:21;;;;;;;13.43;12.03;;;6.80;99.90;;;-141.84;90.08;16770.56;5010929;28;20322;-61
2022/04/23 04:22:49;;;;;;;13.63;11.73;;;6.80;99.90;;;-141.84;89.74;16760.41;5011094;28;20238;-61
2022/04/23 04:25:18;;;;;;;13.70;12.17;;;6.80;99.90;;;-141.84;89.07;16788.84;5010845;28;20218;-60
2022/04/23 04:27:46;;;;;;;14.37;11.67;;;6.80;99.90;;;-141.84;89.16;16740.09;5010540;28;20252;-60
2022/04/23 04:30:14;;;;;;;13.87;12.37;;;6.80;99.90;;;-141.84;89.22;16776.66;5010893;28;20652;-59
2022/04/23 04:32:49;;;;;;;13.57;11.80;;;6.80;99.90;;;-141.84;88.24;16809.13;5010744;28;20233;-61
2022/04/23 04:35:17;;;;;;;14.97;12.60;;;6.90;99.90;;;-141.84;88.99;16801.03;5025971;28;20261;-60
2022/04/23 04:37:45;;;;;;;15.70;12.33;;;6.90;99.90;;;-141.84;88.68;16754.31;5030468;28;20237;-60
2022/04/23 04:40:13;;;;;;;13.50;12.10;;;6.90;99.90;;;-141.84;88.68;16788.84;5030574;28;20229;-60
2022/04/23 04:42:41;;;;;;;13.47;12.07;;;7.00;99.90;;;-141.84;88.06;16784.78;5030571;28;20202;-60
2022/04/23 04:45:10;;;;;;;14.10;11.80;;;7.00;99.90;;;-141.84;87.90;16770.56;5031051;28;20536;-60
2022/04/23 04:47:38;;;;;;;13.83;12.43;;;7.10;99.90;;;-141.84;87.78;16803.06;5030356;28;20260;-60
2022/04/23 04:50:10;;;;;;;15.53;12.83;;;7.10;99.90;;;-141.84;86.90;16809.13;5030266;28;20235;-59
2022/04/23 04:52:38;;;;;;;14.30;12.80;;;7.20;99.90;;;-141.84;87.80;16786.81;5030532;28;20221;-60
2022/04/23 04:55:07;;;;;;;14.13;12.27;;;7.20;99.90;;;-141.84;87.15;16794.94;5030109;28;20760;-60
2022/04/23 04:57:34;;;;;;;15.43;13.40;;;7.20;99.90;;;-141.84;87.97;16770.56;5030586;28;20289;-61
2022/04/23 05:00:06;;;;;;;12.80;11.50;;;7.30;99.90;;;-141.84;86.73;16827.41;5030871;28;20205;-60
2022/04/23 05:02:34;;;;;;;14.17;12.67;;;7.30;99.90;;;-141.84;86.37;16807.13;5030343;28;20249;-61
2022/04/23 05:05:02;;;;;;;16.33;13.33;;;7.40;99.90;;;-141.84;85.84;16811.16;5030519;28;20225;-60
2022/04/23 05:07:32;;;;;;;15.63;12.93;;;7.50;99.90;;;-141.84;85.01;16829.44;5030564;28;20229;-60
2022/04/23 05:10:01;;;;;;;14.10;12.43;;;7.60;99.90;;;-141.84;84.53;16868.03;5030425;28;20226;-60
2022/04/23 05:12:30;;;;;;;13.77;12.20;;;7.60;99.90;;;-141.84;84.82;16845.69;5030239;28;20209;-60
2022/04/23 05:14:58;;;;;;;14.07;12.10;;;7.70;99.90;;;-141.84;83.91;16845.69;5027846;28;20799;-59
2022/04/23 05:17:26;;;;;;;15.23;13.20;;;7.90;99.90;;;-141.84;83.17;16855.84;5010373;28;20325;-60
2022/04/23 05:19:53;;;;;;;15.53;13.33;;;8.00;99.90;;;-141.84;82.12;16857.88;5010417;28;20394;-60
2022/04/23 05:22:21;;;;;;;14.63;13.07;;;8.20;99.90;;;-141.84;80.97;16900.53;5010395;28;20237;-60
2022/04/23 05:24:51;;;;;;;13.77;12.00;;;8.40;99.90;;;-141.84;81.44;16898.50;5010264;28;20228;-59
2022/04/23 05:27:19;;;;;;;14.93;12.93;;;8.50;99.90;;;-141.84;80.04;16916.78;5026032;28;20206;-60
2022/04/23 05:29:47;;;;;;;14.60;12.60;;;8.70;99.90;;;-141.84;79.75;16922.88;5010867;28;20317;-61
2022/04/23 05:32:14;;;;;;;14.37;12.47;;;8.70;99.90;;;-141.84;79.66;16945.22;5030138;28;20230;-61
2022/04/23 05:34:43;;;;;;;16.33;13.20;;;8.80;99.90;;;-141.84;79.49;16945.22;5029925;28;20226;-60
2022/04/23 05:37:11;;;;;;;13.83;12.37;;;8.80;99.90;;;-141.84;79.47;16931.00;5029850;28;20726;-60
2022/04/23 05:39:39;;;;;;;14.67;12.03;;;8.90;99.90;;;-141.84;79.01;16951.31;5030824;28;20635;-60
2022/04/23 05:42:08;;;;;;;14.83;12.83;;;9.00;99.90;;;-141.84;79.07;16983.78;5034177;28;20209;-60
2022/04/23 05:44:36;;;;;;;14.80;12.67;;;9.00;99.90;;;-141.84;78.69;16949.28;5033545;28;20225;-59
2022/04/23 05:47:05;;;;;;;13.80;12.30;;;9.10;99.90;;;-141.84;77.75;17002.06;5033331;28;20232;-60
2022/04/23 05:49:33;;;;;;;14.30;12.80;;;9.20;99.90;;;-141.84;77.85;16989.88;5033449;28;20238;-59
2022/04/23 05:52:21;;;;;;;14.33;12.83;;;9.30;99.90;;;-141.84;77.47;17002.06;5033391;28;20226;-60
2022/04/23 05:54:49;;;;;;;14.23;12.60;;;9.30;99.90;;;-141.84;77.85;16961.44;5033380;28;20225;-59
2022/04/23 05:57:18;;;;;;;14.33;12.33;;;9.40;99.90;;;-141.84;76.68;17006.13;5032432;28;20202;-61
2022/04/23 05:59:46;;;;;;;13.37;11.97;;;9.60;99.90;;;-141.84;76.77;17000.03;5032238;28;20235;-62
2022/04/23 06:02:14;;;;;;;13.73;12.13;;;9.60;99.90;;;-141.84;76.26;16998.00;5032771;28;20222;-60
2022/04/23 06:04:45;;;;;;;15.60;13.30;;;9.70;99.90;;;-141.84;76.30;17030.50;5032952;28;20222;-61
2022/04/23 06:07:13;;;;;;;14.47;12.97;;;9.60;99.90;;;-141.84;76.77;17010.19;5032822;28;20228;-60
2022/04/23 06:09:41;;;;;;;13.50;12.20;;;9.70;99.90;;;-141.84;75.38;17077.22;5032615;28;20218;-60
2022/04/23 06:12:09;;;;;;;14.53;12.53;;;9.80;99.90;;;-141.84;74.46;17071.13;5033380;28;20213;-60
2022/04/23 06:14:39;;;;;;;13.30;11.90;;;9.80;99.90;;;-141.84;74.46;17077.22;5032500;28;20226;-59
2022/04/23 06:17:08;;;;;;;13.70;12.30;;;9.90;99.90;;;-141.84;75.05;17065.03;5012595;28;20289;-61
2022/04/23 06:19:37;;;;;;;13.57;12.17;;;9.90;99.90;;;-141.84;73.89;17075.19;5012604;28;20230;-60
2022/04/23 06:22:06;;;;;;;13.23;11.93;;;9.90;99.90;;;-141.84;74.03;17099.56;5012863;28;20363;-60
2022/04/23 06:24:34;;;;;;;13.37;12.07;;;9.90;99.90;;;-141.84;73.22;17103.63;5012579;28;20286;-60
2022/04/23 06:27:04;;;;;;;13.97;12.27;;;9.90;99.90;;;-141.84;73.21;17089.41;5022564;28;20210;-61
2022/04/23 06:29:39;;;;;;;13.97;12.47;;;10.00;99.90;;;-141.84;73.78;17097.53;5032200;28;20302;-60
2022/04/23 06:32:08;;;;;;;15.57;12.00;;;9.90;99.90;;;-141.84;72.76;17095.50;5012236;28;20222;-60
2022/04/23 06:34:37;;;;;;;13.03;11.73;;;10.00;99.90;;;-141.84;73.31;17099.56;5012281;28;20235;-62
2022/04/23 06:37:06;;;;;;;14.43;12.17;;;10.00;99.90;;;-141.84;72.70;17121.91;5012636;28;20288;-60
2022/04/23 06:39:34;;;;;;;12.30;11.10;;;10.10;99.90;;;-141.84;70.99;17148.31;5012475;28;20202;-61
2022/04/23 06:42:03;;;;;;;12.23;10.93;;;10.20;99.90;;;-141.84;69.79;17156.41;5028322;28;20209;-59
2022/04/23 06:44:31;;;;;;;10.80;9.73;;;10.20;99.90;;;-141.84;67.00;17217.34;5032035;28;20286;-60
2022/04/23 06:47:00;;;;;;;10.73;9.67;;;10.30;99.90;;;-141.84;66.35;17237.66;5032722;28;20308;-61
2022/04/23 06:49:28;;;;;;;10.37;9.27;;;10.40;99.90;;;-141.84;65.32;17290.47;5032363;28;20230;-61
2022/04/23 06:51:56;;;;;;;10.10;9.10;;;10.40;99.90;;;-141.84;64.22;17300.63;5031407;28;20232;-59
2022/04/23 06:54:25;;;;;;;10.40;9.40;;;10.40;99.90;;;-141.84;63.71;17335.16;5032796;28;20208;-60
2022/04/23 06:56:53;;;;;;;10.67;9.57;;;10.50;99.90;;;-141.84;63.91;17308.75;5033212;28;20206;-60
2022/04/23 06:59:21;;;;;;;9.63;8.63;;;10.50;99.90;;;-141.84;62.53;17341.25;5032532;28;20600;-60
2022/04/23 07:01:49;;;;;;;9.43;8.53;;;10.50;99.90;;;-141.84;61.31;17365.63;5032442;28;20230;-62
2022/04/23 07:04:19;;;;;;;9.43;8.53;;;10.60;99.90;;;-141.84;60.66;17430.63;5032687;28;20214;-60
2022/04/23 07:06:47;;;;;;;8.93;8.03;;;10.60;99.90;;;-141.84;61.14;17402.19;5032644;28;20256;-60
2022/04/23 07:09:15;;;;;;;8.47;7.67;;;10.60;99.90;;;-141.84;60.73;17420.47;5032442;28;20221;-61
2022/04/23 07:11:42;;;;;;;8.60;7.80;;;10.60;99.90;;;-141.84;60.11;17434.69;5032249;28;20230;-60
2022/04/23 07:14:10;;;;;;;8.77;7.50;;;10.60;99.90;;;-141.84;58.46;17481.38;5032335;28;20234;-60
2022/04/23 07:16:39;;;;;;;7.60;6.80;;;10.80;99.90;;;-141.84;57.10;17493.56;5031869;28;20318;-58
2022/04/23 07:19:09;;;;;;;7.10;6.40;;;10.80;99.90;;;-141.84;57.32;17526.06;5032348;28;20229;-61
2022/04/23 07:21:38;;;;;;;7.93;7.13;;;10.90;99.90;;;-141.84;56.75;17522.00;5032230;28;20206;-59
2022/04/23 07:24:10;;;;;;;7.77;7.07;;;10.90;99.90;;;-141.84;56.48;17519.97;5032435;28;20704;-61
2022/04/23 07:26:40;;;;;;;7.13;6.40;;;10.90;99.90;;;-141.84;56.63;17522.00;5031948;28;20222;-61
2022/04/23 07:29:11;;;;;;;7.40;6.70;;;10.90;99.90;;;-141.84;55.90;17538.25;5032071;28;20226;-60
2022/04/23 07:31:39;;;;;;;7.60;6.90;;;10.90;99.90;;;-141.84;56.30;17570.75;5032069;28;20260;-59
2022/04/23 07:39:40;;;;;;;7.23;6.53;;;10.90;99.90;;;-141.84;54.87;17578.88;5012315;28;20205;-60
2022/04/23 07:42:08;;;;;;;7.23;6.40;;;11.00;99.90;;;-141.84;55.27;17595.13;5029284;28;20688;-60
2022/04/23 07:44:37;;;;;;;7.80;7.00;;;11.00;99.90;;;-141.84;55.45;17552.47;5031874;28;20236;-61
2022/04/23 07:47:06;;;;;;;9.40;7.33;;;11.00;99.90;;;-141.84;55.83;17546.38;5031544;28;20226;-60
2022/04/23 07:49:34;;;;;;;7.57;6.80;;;11.10;99.90;;;-141.84;53.86;17617.47;5031767;28;20801;-60
2022/04/23 07:52:05;;;;;;;9.47;7.00;;;11.20;99.90;;;-141.84;54.13;17574.81;5031866;28;20360;-60
2022/04/23 07:54:33;;;;;;;7.67;6.97;;;11.20;99.90;;;-141.84;54.51;17599.19;5031810;28;20206;-60
2022/04/23 07:57:00;;;;;;;7.80;7.00;;;11.20;99.90;;;-141.84;54.71;17574.81;5032223;28;20212;-60
2022/04/23 07:59:29;;;;;;;7.53;6.83;;;11.30;99.90;;;-141.84;54.39;17599.19;5031569;28;20232;-60
2022/04/23 08:01:56;;;;;;;7.33;6.63;;;11.30;99.90;;;-141.84;54.91;17589.03;5031402;28;20226;-61
2022/04/23 08:04:25;;;;;;;7.60;6.60;;;11.40;99.90;;;-141.84;54.34;17593.09;5031544;28;20245;-60
2022/04/23 08:06:53;;;;;;;6.67;6.07;;;11.40;99.90;;;-141.84;54.15;17603.25;5031418;28;20237;-60
2022/04/23 08:09:22;;;;;;;8.43;6.57;;;11.40;99.90;;;-141.84;52.84;17676.38;5031545;28;20268;-60
2022/04/23 08:11:50;;;;;;;6.20;5.60;;;11.50;99.90;;;-141.84;52.80;17645.91;5031481;28;20305;-59
2022/04/23 08:14:18;;;;;;;7.00;6.10;;;11.60;99.90;;;-141.84;52.25;17662.16;5031051;28;20226;-61
2022/04/23 08:16:49;;;;;;;6.17;5.57;;;11.60;99.90;;;-141.84;51.83;17678.41;5031059;28;20225;-60
2022/04/23 08:19:18;;;;;;;6.47;5.73;;;11.70;99.90;;;-141.84;48.29;17700.75;5031400;28;20221;-61
2022/04/23 08:21:46;;;;;;;6.57;5.30;;;11.80;99.90;;;-141.84;48.26;17684.50;5031201;28;20325;-60
2022/04/23 08:24:14;;;;;;;6.07;5.47;;;11.80;99.90;;;-141.84;47.60;17688.56;5031639;28;20208;-61
2022/04/23 08:26:43;;;;;;;7.33;5.63;;;11.70;99.90;;;-141.84;46.95;17757.63;5030949;28;20830;-60
2022/04/23 08:31:57;;;;;;;5.60;5.10;;;11.90;99.90;;;-141.84;45.98;17739.34;5030839;28;20877;-59
2022/04/23 08:34:25;;;;;;;5.83;5.23;;;11.90;99.90;;;-141.84;45.71;17767.78;5030961;28;20236;-60
2022/04/23 08:36:53;;;;;;;5.47;4.97;;;12.00;99.90;;;-141.84;45.66;17749.50;5031011;28;20260;-59
2022/04/23 08:39:21;;;;;;;6.40;5.80;;;12.10;99.90;;;-141.84;45.01;17784.03;5031232;28;20682;-61
2022/04/23 08:41:50;;;;;;;6.70;5.47;;;12.10;99.90;;;-141.84;45.69;17753.56;5031227;28;20221;-62
2022/04/23 08:44:18;;;;;;;6.23;5.40;;;12.20;99.90;;;-141.84;44.82;17798.25;5031070;28;20237;-59
2022/04/23 08:46:47;;;;;;;6.77;6.07;;;12.30;99.90;;;-141.84;44.99;17792.16;5030804;28;20233;-60
2022/04/23 08:49:17;;;;;;;6.77;5.73;;;12.40;99.90;;;-141.84;44.53;17800.28;5030851;28;20309;-60
2022/04/23 08:51:52;;;;;;;8.60;5.90;;;12.30;99.90;;;-141.84;45.09;17798.25;5030601;28;20230;-60
2022/04/23 08:54:24;;;;;;;6.90;6.20;;;12.20;99.90;;;-141.84;45.29;17792.16;5031157;28;20200;-60
2022/04/23 08:56:53;;;;;;;6.70;5.90;;;12.20;99.90;;;-141.84;45.33;17784.03;5031087;28;20544;-60
2022/04/23 08:59:22;;;;;;;8.43;6.07;;;12.20;99.90;;;-141.84;45.30;17784.03;5030969;28;20226;-59
2022/04/23 09:02:02;;;;;;;6.10;5.50;;;12.20;99.90;;;-141.84;45.35;17816.53;5030641;28;20280;-61
2022/04/23 09:04:30;;;;;;;6.83;6.13;;;12.30;99.90;;;-141.84;44.74;17788.09;5030891;28;20462;-63
2022/04/23 09:07:00;;;;;;;7.70;6.33;;;12.40;99.90;;;-141.84;45.55;17765.75;5030917;28;20261;-60
2022/04/23 09:09:28;;;;;;;6.57;5.97;;;12.40;99.90;;;-141.84;44.92;17790.13;5030070;28;20580;-60
2022/04/23 09:11:59;;;;;;;7.27;6.10;;;12.60;99.90;;;-141.84;44.35;17818.56;5031229;28;20271;-59
2022/04/23 09:14:29;;;;;;;6.93;5.93;;;12.70;99.90;;;-141.84;44.41;17842.94;5031157;28;20861;-61
2022/04/23 09:25:44;;;;;;;6.63;5.93;;;13.20;99.90;;;-141.84;43.86;17873.41;4991617;28;20234;-61
2022/04/23 09:28:19;;;;;;;7.00;6.30;;;13.10;99.90;;;-141.84;44.38;17859.19;5018339;28;20699;-59
2022/04/23 09:30:49;;;;;;;7.87;6.50;;;13.10;99.90;;;-141.84;43.99;17867.31;5033783;28;20247;-60
2022/04/23 09:33:18;;;;;;;7.30;6.60;;;13.10;99.90;;;-141.84;43.82;17867.31;5030936;28;20656;-60
2022/04/23 09:35:56;;;;;;;6.20;5.60;;;13.10;99.90;;;-141.84;44.32;17818.56;5032143;28;20230;-60
2022/04/23 09:38:26;;;;;;;6.57;5.97;;;13.10;99.90;;;-141.84;43.89;17877.47;5024670;28;20221;-60
2022/04/23 09:40:55;;;;;;;6.03;5.50;;;13.10;99.90;;;-141.84;43.38;17885.59;5032875;28;20214;-60
2022/04/23 09:43:30;;;;;;;6.20;5.60;;;13.00;99.90;;;-141.84;43.78;17887.63;5032901;28;20245;-59
2022/04/23 09:46:05;;;;;;;6.20;5.60;;;13.10;99.90;;;-141.84;42.51;17897.78;5031396;28;20217;-60
2022/04/23 09:48:39;;;;;;;5.87;5.27;;;13.10;99.90;;;-141.84;42.33;17940.47;5027022;28;20199;-61
2022/04/23 09:51:24;;;;;;;5.67;5.17;;;13.20;99.90;;;-141.84;41.68;17970.94;5029244;28;20284;-61
2022/04/23 09:53:53;;;;;;;5.20;4.70;;;13.20;99.90;;;-141.84;41.80;17940.47;5033810;28;20213;-62
2022/04/23 09:56:23;;;;;;;5.90;4.87;;;13.20;99.90;;;-141.84;41.75;17934.38;5033599;28;20226;-61
2022/04/23 09:58:53;;;;;;;5.23;4.50;;;13.20;99.90;;;-141.84;41.86;17938.44;5033350;28;20328;-59
2022/04/23 10:01:23;;;;;;;4.77;4.37;;;13.30;99.90;;;-141.84;40.88;17975.00;5033439;28;20759;-60
2022/04/23 10:03:54;;;;;;;4.47;3.87;;;13.40;99.90;;;-141.84;41.41;17972.97;5034071;28;20272;-60
2022/04/23 10:06:24;;;;;;;4.47;4.07;;;13.40;99.90;;;-141.84;40.88;17981.09;5033937;28;20596;-61
2022/04/23 10:08:57;;;;;;;6.07;4.33;;;13.60;99.90;;;-141.84;40.64;17993.28;5033333;28;20569;-61
2022/04/23 10:11:28;;;;;;;4.73;4.33;;;13.70;99.90;;;-141.84;40.70;17972.97;5033070;28;20658;-60
2022/04/23 10:14:02;;;;;;;4.03;3.67;;;13.70;99.90;;;-141.84;40.69;18031.88;5033081;28;20241;-61
2022/04/23 10:16:32;;;;;;;4.10;3.70;;;13.70;99.90;;;-141.84;40.70;18001.41;5032568;28;20229;-61
2022/04/23 10:19:01;;;;;;;3.70;3.40;;;13.70;99.90;;;-141.84;40.25;18027.81;5033244;28;20364;-61
2022/04/23 10:21:40;;;;;;;4.85;4.28;;;13.80;99.90;;;-141.84;40.00;18042.03;5033157;28;20195;-60
2022/04/23 10:24:15;;;;;;;4.93;4.43;;;13.90;99.90;;;-141.84;39.76;18056.25;5033560;28;20197;-59
2022/04/23 10:26:48;;;;;;;4.47;4.07;;;13.90;99.90;;;-141.84;39.90;18062.34;5031513;28;20244;-60